Time;durP1;ratioP1;P1;durP2;ratioP2;P2;SDS_P1;SDS_P2;PMS_P1;PMS_P2;Temp;Humidity;BMP_temperature;BMP_pressure;BME280_temperature;BME280_humidity;BME280_pressure;Samples;Min_cycle;Max_cycle;Signal;HPM_P1;HPM_P2
2022/07/18 00:00:10;;;;;;;9.20;5.62;;;25.00;69.40;;;;;;1916884;75;21514;-60
2022/07/18 00:02:40;;;;;;;6.78;5.40;;;25.00;69.30;;;;;;1916930;75;21425;-60
2022/07/18 00:05:09;;;;;;;6.03;5.42;;;24.90;69.30;;;;;;1916906;75;20982;-60
2022/07/18 00:07:38;;;;;;;6.55;5.83;;;24.90;69.80;;;;;;1916884;75;21034;-60
2022/07/18 00:10:07;;;;;;;5.92;4.78;;;24.90;70.00;;;;;;1916912;75;20999;-60
2022/07/18 00:12:36;;;;;;;8.13;5.80;;;25.00;70.00;;;;;;1916845;75;21064;-60
2022/07/18 00:15:06;;;;;;;5.37;4.87;;;25.00;69.20;;;;;;1916933;75;21452;-60
2022/07/18 00:17:35;;;;;;;5.10;4.60;;;24.90;69.30;;;;;;1916875;75;21069;-61
2022/07/18 00:20:09;;;;;;;5.30;4.80;;;24.90;69.50;;;;;;1916922;75;21006;-60
2022/07/18 00:22:38;;;;;;;6.20;5.47;;;24.90;68.80;;;;;;1917140;75;21060;-60
2022/07/18 00:25:07;;;;;;;7.28;5.53;;;24.90;69.00;;;;;;1916867;75;21002;-60
2022/07/18 00:27:36;;;;;;;6.03;5.42;;;24.90;69.40;;;;;;1916940;75;21397;-60
2022/07/18 00:30:05;;;;;;;5.50;5.08;;;24.90;69.30;;;;;;1916881;75;21006;-60
2022/07/18 00:32:34;;;;;;;6.12;5.58;;;24.80;69.20;;;;;;1916872;75;21473;-60
2022/07/18 00:35:03;;;;;;;7.62;5.83;;;24.80;68.70;;;;;;1916849;75;21068;-60
2022/07/18 00:37:32;;;;;;;6.30;5.70;;;24.70;68.70;;;;;;1916829;75;21064;-60
2022/07/18 00:40:01;;;;;;;7.00;5.75;;;24.60;68.60;;;;;;1916917;75;21105;-60
2022/07/18 00:42:30;;;;;;;8.28;5.37;;;24.60;69.30;;;;;;1916836;75;21064;-60
2022/07/18 00:44:59;;;;;;;8.53;4.67;;;24.60;69.20;;;;;;1916810;74;21049;-60
2022/07/18 00:47:28;;;;;;;6.87;5.25;;;24.60;69.60;;;;;;1916840;75;20995;-60
2022/07/18 00:49:57;;;;;;;5.72;5.15;;;24.60;69.90;;;;;;1916900;75;21002;-60
2022/07/18 00:52:26;;;;;;;7.30;5.95;;;24.60;70.00;;;;;;1916867;75;21139;-60
2022/07/18 00:54:57;;;;;;;7.45;5.70;;;24.60;70.10;;;;;;1916969;75;21010;-60
2022/07/18 00:57:26;;;;;;;7.35;5.80;;;24.60;70.20;;;;;;1916883;75;20982;-60
2022/07/18 01:02:42;;;;;;;6.33;5.40;;;24.60;70.20;;;;;;1916866;75;21039;-60
2022/07/18 01:05:11;;;;;;;5.90;5.08;;;24.60;69.80;;;;;;1916874;75;20995;-60
2022/07/18 01:07:40;;;;;;;6.35;5.75;;;24.60;70.10;;;;;;1916837;75;21436;-60
2022/07/18 01:10:09;;;;;;;6.33;5.25;;;24.50;70.00;;;;;;1916822;75;21056;-60
2022/07/18 01:12:38;;;;;;;7.25;6.00;;;24.50;70.60;;;;;;1916846;75;21038;-60
2022/07/18 01:15:08;;;;;;;7.05;5.87;;;24.50;70.90;;;;;;1916820;75;21060;-60
2022/07/18 01:17:37;;;;;;;7.97;6.37;;;24.50;71.10;;;;;;1916887;75;21060;-60
2022/07/18 01:20:07;;;;;;;6.72;6.03;;;24.50;71.20;;;;;;1916865;75;21006;-61
2022/07/18 01:22:36;;;;;;;8.98;6.25;;;24.50;71.40;;;;;;1916872;75;21589;-60
2022/07/18 01:25:06;;;;;;;7.92;6.12;;;24.50;71.70;;;;;;1916864;75;21060;-60
2022/07/18 01:27:35;;;;;;;6.90;5.90;;;24.40;71.90;;;;;;1916767;75;21006;-60
2022/07/18 01:30:06;;;;;;;10.95;6.75;;;24.30;72.10;;;;;;1916838;75;21441;-60
2022/07/18 01:32:35;;;;;;;7.92;7.10;;;24.30;72.50;;;;;;1916978;75;21056;-60
2022/07/18 01:35:05;;;;;;;10.23;6.75;;;24.30;73.10;;;;;;1916800;75;21409;-61
2022/07/18 01:37:34;;;;;;;8.53;7.10;;;24.20;73.70;;;;;;1916887;75;20994;-60
2022/07/18 01:40:04;;;;;;;8.00;6.90;;;24.20;74.00;;;;;;1916765;75;20996;-60
2022/07/18 01:42:33;;;;;;;9.33;8.08;;;24.20;74.40;;;;;;1916775;75;21006;-60
2022/07/18 01:45:02;;;;;;;8.68;7.37;;;24.20;74.60;;;;;;1916943;75;21092;-60
2022/07/18 01:47:31;;;;;;;9.00;8.05;;;24.20;75.10;;;;;;1916855;75;21022;-61
2022/07/18 01:50:01;;;;;;;9.85;7.85;;;24.20;75.40;;;;;;1916774;75;21010;-60
2022/07/18 01:52:30;;;;;;;11.75;8.08;;;24.20;75.40;;;;;;1916858;75;21010;-60
2022/07/18 01:54:58;;;;;;;11.50;8.23;;;24.10;75.60;;;;;;1916830;75;20982;-60
2022/07/18 01:57:27;;;;;;;12.55;8.83;;;24.20;75.90;;;;;;1916885;75;21084;-60
2022/07/18 01:59:56;;;;;;;12.65;8.98;;;24.20;76.50;;;;;;1916811;75;21500;-60
2022/07/18 02:02:25;;;;;;;10.13;8.25;;;24.10;76.80;;;;;;1916846;75;21060;-60
2022/07/18 02:05:00;;;;;;;11.73;9.20;;;24.10;77.20;;;;;;1916854;75;20978;-60
2022/07/18 02:07:31;;;;;;;11.65;8.90;;;24.00;77.50;;;;;;1916891;75;20963;-60
2022/07/18 02:10:02;;;;;;;12.35;8.83;;;24.00;77.70;;;;;;1916944;75;20991;-60
2022/07/18 02:12:31;;;;;;;12.30;9.00;;;24.00;78.00;;;;;;1916905;75;20979;-60
2022/07/18 02:15:00;;;;;;;12.98;9.20;;;24.00;78.30;;;;;;1916844;75;20998;-60
2022/07/18 02:17:29;;;;;;;14.60;10.00;;;24.00;78.70;;;;;;1916905;75;21471;-60
2022/07/18 02:19:58;;;;;;;15.28;9.10;;;23.90;78.80;;;;;;1916854;75;21064;-60
2022/07/18 02:22:27;;;;;;;10.40;8.83;;;23.90;79.20;;;;;;1916867;75;21002;-60
2022/07/18 02:24:56;;;;;;;11.73;8.85;;;23.90;79.50;;;;;;1916770;75;21480;-60
2022/07/18 02:27:25;;;;;;;10.55;7.50;;;23.90;79.70;;;;;;1916844;75;21003;-60
2022/07/18 02:29:54;;;;;;;10.72;8.45;;;23.90;80.00;;;;;;1916736;75;21014;-60
2022/07/18 02:32:23;;;;;;;17.27;8.70;;;23.90;80.60;;;;;;1916902;75;21535;-60
2022/07/18 02:34:55;;;;;;;8.43;7.72;;;23.80;80.70;;;;;;1916853;75;21010;-60
2022/07/18 02:37:22;;;;;;;9.43;8.30;;;23.80;80.70;;;;;;1916837;75;20982;-60
2022/07/18 02:39:51;;;;;;;18.90;9.08;;;23.80;80.90;;;;;;1916825;75;21002;-60
2022/07/18 02:42:20;;;;;;;8.98;7.45;;;23.80;81.10;;;;;;1916844;75;21034;-61
2022/07/18 02:44:49;;;;;;;7.83;7.03;;;23.80;81.10;;;;;;1916745;75;21060;-60
2022/07/18 02:47:18;;;;;;;9.90;8.03;;;23.80;81.40;;;;;;1916666;75;21015;-60
2022/07/18 02:49:47;;;;;;;12.40;7.97;;;23.80;81.60;;;;;;1916748;75;21030;-60
2022/07/18 02:52:16;;;;;;;11.10;7.90;;;23.80;81.70;;;;;;1916779;75;21019;-60
2022/07/18 02:54:45;;;;;;;9.78;7.70;;;23.80;81.70;;;;;;1916822;75;20986;-60
2022/07/18 02:57:14;;;;;;;11.03;7.78;;;23.80;81.70;;;;;;1916796;75;21158;-60
2022/07/18 02:59:45;;;;;;;13.18;8.30;;;23.80;81.80;;;;;;1916977;75;21002;-60
2022/07/18 03:02:14;;;;;;;10.68;7.03;;;23.70;82.10;;;;;;1916920;75;21102;-60
2022/07/18 03:04:43;;;;;;;8.70;6.60;;;23.70;82.00;;;;;;1916890;75;21065;-60
2022/07/18 03:07:12;;;;;;;8.23;7.20;;;23.70;82.50;;;;;;1916788;75;20985;-60
2022/07/18 03:09:41;;;;;;;11.68;7.35;;;23.70;82.30;;;;;;1916823;75;21112;-60
2022/07/18 03:12:10;;;;;;;14.83;6.60;;;23.70;82.60;;;;;;1916973;75;21409;-60
2022/07/18 03:14:38;;;;;;;12.70;6.67;;;23.60;82.60;;;;;;1916857;75;21072;-61
2022/07/18 03:17:07;;;;;;;12.70;7.40;;;23.60;82.60;;;;;;1916894;75;20990;-61
2022/07/18 03:19:37;;;;;;;8.95;7.58;;;23.60;82.60;;;;;;1916862;75;21448;-61
2022/07/18 03:22:06;;;;;;;9.63;7.22;;;23.60;82.50;;;;;;1916834;75;21465;-61
2022/07/18 03:24:35;;;;;;;13.70;7.75;;;23.60;82.60;;;;;;1916895;75;20979;-61
2022/07/18 03:27:04;;;;;;;8.23;6.58;;;23.60;82.50;;;;;;1916878;75;20979;-61
2022/07/18 03:29:33;;;;;;;14.00;7.17;;;23.60;82.70;;;;;;1916844;75;21003;-61
2022/07/18 03:32:02;;;;;;;10.72;6.60;;;23.60;82.40;;;;;;1916861;75;21405;-61
2022/07/18 03:34:31;;;;;;;12.28;6.90;;;23.70;82.40;;;;;;1916836;75;20979;-61
2022/07/18 03:37:00;;;;;;;11.38;8.00;;;23.80;82.30;;;;;;1916858;75;21076;-60
2022/07/18 03:39:29;;;;;;;12.23;6.78;;;23.80;82.10;;;;;;1916872;75;21445;-60
2022/07/18 03:41:57;;;;;;;11.05;7.12;;;23.80;81.80;;;;;;1916814;75;20982;-60
2022/07/18 03:44:26;;;;;;;14.15;8.25;;;23.90;81.60;;;;;;1916833;75;21006;-61
2022/07/18 03:46:55;;;;;;;11.05;7.62;;;23.90;81.20;;;;;;1918231;74;21100;-61
2022/07/18 03:49:24;;;;;;;18.48;7.92;;;23.90;81.00;;;;;;1924016;74;21075;-61
2022/07/18 03:51:55;;;;;;;11.57;7.08;;;24.00;80.70;;;;;;1923882;74;20998;-61
2022/07/18 03:54:24;;;;;;;12.10;7.67;;;24.00;80.40;;;;;;1923824;74;21034;-61
2022/07/18 03:56:53;;;;;;;10.90;5.83;;;24.00;79.90;;;;;;1923847;74;21010;-60
2022/07/18 03:59:22;;;;;;;8.35;5.15;;;24.10;79.60;;;;;;1923886;74;20966;-60
2022/07/18 04:01:51;;;;;;;12.73;6.10;;;24.00;79.00;;;;;;1923848;74;20994;-60
2022/07/18 04:04:21;;;;;;;10.40;5.20;;;24.10;78.90;;;;;;1923792;74;21056;-60
2022/07/18 04:06:50;;;;;;;8.95;5.28;;;24.10;78.70;;;;;;1923823;74;21002;-60
2022/07/18 04:09:19;;;;;;;9.58;5.78;;;24.10;78.50;;;;;;1923870;74;20990;-60
2022/07/18 04:11:47;;;;;;;9.23;5.20;;;24.20;78.30;;;;;;1923862;74;21067;-60
2022/07/18 04:14:16;;;;;;;8.43;5.53;;;24.20;78.30;;;;;;1923772;74;20978;-60
2022/07/18 04:16:45;;;;;;;10.70;4.78;;;24.30;78.00;;;;;;1923876;74;21134;-60
2022/07/18 04:19:14;;;;;;;8.45;5.40;;;24.30;78.00;;;;;;1923929;74;20986;-60
2022/07/18 04:21:43;;;;;;;5.28;4.72;;;24.40;77.60;;;;;;1923895;74;21039;-60
2022/07/18 04:24:12;;;;;;;14.85;6.95;;;24.40;77.40;;;;;;1923818;74;20998;-60
2022/07/18 04:26:42;;;;;;;6.42;5.30;;;24.40;77.20;;;;;;1923773;74;21011;-60
2022/07/18 04:29:10;;;;;;;8.93;5.25;;;24.40;77.10;;;;;;1923917;74;21095;-60
2022/07/18 04:31:39;;;;;;;7.35;4.80;;;24.50;76.90;;;;;;1923958;74;20990;-60
2022/07/18 04:34:08;;;;;;;8.60;5.50;;;24.60;76.90;;;;;;1923843;74;21055;-60
2022/07/18 04:36:37;;;;;;;12.25;5.67;;;24.70;76.70;;;;;;1923826;74;21010;-60
2022/07/18 04:39:06;;;;;;;8.05;5.42;;;24.80;76.50;;;;;;1923889;74;21370;-60
2022/07/18 04:41:35;;;;;;;6.25;5.20;;;25.00;76.20;;;;;;1923955;74;21056;-60
2022/07/18 04:44:04;;;;;;;4.53;4.05;;;25.00;75.20;;;;;;1923916;74;21061;-61
2022/07/18 04:46:33;;;;;;;7.92;4.12;;;25.10;74.60;;;;;;1923886;74;21494;-60
2022/07/18 04:49:02;;;;;;;9.18;5.33;;;25.10;74.20;;;;;;1917915;74;21100;-60
2022/07/18 04:51:32;;;;;;;7.10;5.12;;;25.20;73.90;;;;;;1916712;75;21006;-60
2022/07/18 04:54:01;;;;;;;7.85;4.25;;;25.30;73.40;;;;;;1916680;75;21010;-60
2022/07/18 04:56:30;;;;;;;8.35;4.60;;;25.20;72.10;;;;;;1916792;75;20982;-60
2022/07/18 04:58:59;;;;;;;13.05;4.62;;;25.30;72.40;;;;;;1916762;75;21477;-60
2022/07/18 05:01:28;;;;;;;12.07;4.75;;;25.30;72.00;;;;;;1916810;75;20994;-60
2022/07/18 05:03:57;;;;;;;8.30;4.90;;;25.50;71.60;;;;;;1916750;75;21068;-60
2022/07/18 05:06:25;;;;;;;8.88;5.30;;;25.50;71.30;;;;;;1916722;75;21469;-60
2022/07/18 05:08:54;;;;;;;14.40;5.92;;;25.60;71.60;;;;;;1916766;75;21010;-61
2022/07/18 05:11:23;;;;;;;11.20;5.42;;;25.70;70.70;;;;;;1916753;75;20999;-61
2022/07/18 05:13:52;;;;;;;9.33;5.70;;;25.80;70.70;;;;;;1916878;75;21010;-61
2022/07/18 05:16:21;;;;;;;6.28;4.60;;;25.90;70.70;;;;;;1916772;75;21507;-61
2022/07/18 05:18:50;;;;;;;6.28;4.47;;;25.90;70.50;;;;;;1916668;75;21073;-61
2022/07/18 05:21:19;;;;;;;6.30;4.03;;;26.00;69.90;;;;;;1916858;75;21060;-61
2022/07/18 05:23:48;;;;;;;4.72;3.58;;;26.00;69.80;;;;;;1916785;75;21409;-61
2022/07/18 05:26:17;;;;;;;8.35;6.03;;;26.00;70.00;;;;;;1916796;75;20999;-61
2022/07/18 05:28:46;;;;;;;7.35;4.42;;;26.00;70.40;;;;;;1916788;75;21064;-61
2022/07/18 05:31:15;;;;;;;5.30;3.70;;;26.20;70.30;;;;;;1916680;75;21089;-61
2022/07/18 05:33:48;;;;;;;4.95;4.17;;;26.20;69.20;;;;;;1916832;75;20990;-61
2022/07/18 05:36:17;;;;;;;8.63;3.70;;;26.20;68.70;;;;;;1916559;75;21068;-61
2022/07/18 05:38:46;;;;;;;5.37;4.15;;;26.20;68.40;;;;;;1916858;75;21064;-61
2022/07/18 05:41:16;;;;;;;7.22;3.70;;;26.10;68.20;;;;;;1916707;75;21452;-61
2022/07/18 05:43:45;;;;;;;6.45;3.62;;;26.10;68.20;;;;;;1916794;75;20990;-60
2022/07/18 05:46:14;;;;;;;5.87;3.45;;;26.10;68.60;;;;;;1916816;75;21453;-61
2022/07/18 05:48:43;;;;;;;5.58;3.70;;;26.10;68.90;;;;;;1917771;73;21038;-61
2022/07/18 05:51:12;;;;;;;9.30;3.60;;;26.10;69.10;;;;;;1923095;74;21030;-61
2022/07/18 05:53:41;;;;;;;5.90;4.20;;;26.10;69.30;;;;;;1923783;74;21071;-60
2022/07/18 05:56:11;;;;;;;5.33;4.20;;;26.20;69.40;;;;;;1923788;74;21065;-61
2022/07/18 05:58:40;;;;;;;9.08;4.37;;;26.20;69.60;;;;;;1923766;74;21038;-61
2022/07/18 06:01:09;;;;;;;11.90;4.47;;;26.30;69.90;;;;;;1923842;74;21010;-61
2022/07/18 06:03:38;;;;;;;5.30;4.03;;;26.30;70.30;;;;;;1923704;74;21538;-61
2022/07/18 06:06:07;;;;;;;14.63;7.17;;;26.30;70.10;;;;;;1923735;74;20974;-60
2022/07/18 06:08:36;;;;;;;6.33;4.25;;;26.40;70.40;;;;;;1923767;74;20962;-61
2022/07/18 06:11:07;;;;;;;10.20;4.75;;;26.50;70.50;;;;;;1923605;74;21484;-61
2022/07/18 06:13:41;;;;;;;6.78;4.75;;;26.60;69.80;;;;;;1923709;74;21006;-61
2022/07/18 06:16:11;;;;;;;8.50;4.50;;;26.70;69.50;;;;;;1923956;74;21059;-61
2022/07/18 06:18:40;;;;;;;5.03;4.22;;;26.70;69.10;;;;;;1923852;74;21072;-61
2022/07/18 06:21:08;;;;;;;15.45;4.42;;;26.80;69.50;;;;;;1923693;74;21006;-61
2022/07/18 06:23:38;;;;;;;8.88;4.22;;;26.80;68.70;;;;;;1923799;74;21018;-61
2022/07/18 06:26:07;;;;;;;5.62;3.72;;;26.90;68.30;;;;;;1923705;74;21104;-61
2022/07/18 06:28:36;;;;;;;10.20;4.40;;;26.90;68.20;;;;;;1923797;74;21002;-61
2022/07/18 06:31:05;;;;;;;5.58;4.00;;;27.00;68.40;;;;;;1923699;74;21389;-61
2022/07/18 06:33:35;;;;;;;5.95;3.85;;;27.10;68.10;;;;;;1923801;74;21011;-61
2022/07/18 06:36:05;;;;;;;5.45;4.20;;;27.10;68.20;;;;;;1923736;74;21022;-61
2022/07/18 06:38:34;;;;;;;8.58;4.65;;;27.20;68.00;;;;;;1923858;74;20982;-61
2022/07/18 06:41:04;;;;;;;5.00;4.37;;;27.30;67.90;;;;;;1923777;74;20967;-60
2022/07/18 06:43:33;;;;;;;9.63;4.72;;;27.40;67.60;;;;;;1923689;74;21100;-60
2022/07/18 06:46:02;;;;;;;8.40;4.97;;;27.40;67.30;;;;;;1923691;74;21466;-60
2022/07/18 06:48:33;;;;;;;7.12;4.45;;;27.40;67.40;;;;;;1923872;74;21072;-61
2022/07/18 06:51:04;;;;;;;5.45;3.95;;;27.50;67.40;;;;;;1919949;74;21022;-61
2022/07/18 06:53:34;;;;;;;7.28;4.40;;;27.60;66.80;;;;;;1916700;75;20995;-61
2022/07/18 06:56:04;;;;;;;20.48;5.95;;;27.70;66.50;;;;;;1916655;75;20994;-61
2022/07/18 06:58:33;;;;;;;14.18;5.15;;;27.80;67.00;;;;;;1916659;75;21546;-61
2022/07/18 07:01:02;;;;;;;4.58;4.12;;;27.90;66.30;;;;;;1916600;75;20970;-61
2022/07/18 07:03:31;;;;;;;5.00;3.98;;;27.90;65.80;;;;;;1916755;75;20994;-60
2022/07/18 07:06:00;;;;;;;5.62;5.03;;;27.70;66.10;;;;;;1916737;75;21065;-61
2022/07/18 07:08:29;;;;;;;6.45;5.08;;;27.60;66.60;;;;;;1916750;75;21034;-60
2022/07/18 07:10:58;;;;;;;14.50;5.75;;;27.60;66.70;;;;;;1916752;75;21542;-61
2022/07/18 07:13:27;;;;;;;6.50;4.47;;;27.60;66.60;;;;;;1916788;75;20978;-61
2022/07/18 07:15:56;;;;;;;6.00;4.90;;;27.50;66.20;;;;;;1916779;75;21068;-61
2022/07/18 07:18:25;;;;;;;8.55;4.72;;;27.40;66.70;;;;;;1916791;75;21472;-61
2022/07/18 07:20:54;;;;;;;9.63;5.10;;;27.30;67.20;;;;;;1916769;75;21006;-61
2022/07/18 07:23:23;;;;;;;7.72;4.75;;;27.30;67.40;;;;;;1916726;75;21072;-61
2022/07/18 07:25:52;;;;;;;6.65;4.83;;;27.30;66.20;;;;;;1916647;75;21514;-61
2022/07/18 07:28:21;;;;;;;6.90;4.80;;;27.30;65.60;;;;;;1916686;75;21056;-61
2022/07/18 07:30:50;;;;;;;4.92;4.12;;;27.30;65.90;;;;;;1916690;75;21006;-61
2022/07/18 07:33:19;;;;;;;7.15;5.30;;;27.20;65.90;;;;;;1916750;75;21531;-61
2022/07/18 07:35:47;;;;;;;6.50;5.40;;;27.10;66.10;;;;;;1916850;75;20963;-61
2022/07/18 07:38:19;;;;;;;9.40;5.10;;;27.20;65.90;;;;;;1916729;75;20994;-61
2022/07/18 07:40:49;;;;;;;6.67;4.92;;;27.10;65.30;;;;;;1916847;75;21026;-61
2022/07/18 07:43:18;;;;;;;5.67;5.10;;;27.10;66.10;;;;;;1916965;75;21072;-61
2022/07/18 07:45:52;;;;;;;6.47;5.20;;;27.20;66.20;;;;;;1916923;75;21053;-61
2022/07/18 07:48:21;;;;;;;8.95;5.40;;;27.40;65.50;;;;;;1916770;75;20983;-61
2022/07/18 07:50:54;;;;;;;11.53;5.28;;;27.50;64.80;;;;;;1916753;75;21096;-60
2022/07/18 07:53:21;;;;;;;8.25;5.45;;;27.60;64.30;;;;;;1916089;75;21027;-61
2022/07/18 07:55:50;;;;;;;8.75;6.42;;;27.70;63.80;;;;;;1916747;75;20990;-61
2022/07/18 07:58:19;;;;;;;11.33;5.12;;;27.70;64.30;;;;;;1916728;75;21441;-61
2022/07/18 08:00:48;;;;;;;7.47;5.72;;;27.80;64.30;;;;;;1916882;75;21014;-61
2022/07/18 08:03:17;;;;;;;6.15;5.35;;;27.80;62.70;;;;;;1916839;75;21064;-61
2022/07/18 08:05:48;;;;;;;9.13;5.12;;;27.90;63.50;;;;;;1916772;75;21147;-61
2022/07/18 08:08:17;;;;;;;7.42;4.70;;;28.00;62.80;;;;;;1916799;75;20974;-61
2022/07/18 08:10:47;;;;;;;9.33;4.10;;;28.00;62.30;;;;;;1916744;75;20986;-61
2022/07/18 08:13:16;;;;;;;8.28;4.55;;;27.80;61.90;;;;;;1916765;75;21093;-61
2022/07/18 08:15:45;;;;;;;6.03;4.10;;;27.70;62.40;;;;;;1916645;75;20996;-61
2022/07/18 08:18:14;;;;;;;7.33;4.87;;;27.60;62.70;;;;;;1916813;75;20975;-61
2022/07/18 08:20:43;;;;;;;8.05;4.12;;;27.60;63.40;;;;;;1916709;75;21002;-61
2022/07/18 08:23:12;;;;;;;8.23;4.45;;;27.70;63.10;;;;;;1916842;75;21048;-60
2022/07/18 08:25:43;;;;;;;6.67;3.80;;;27.80;62.90;;;;;;1916789;75;21060;-61
2022/07/18 08:28:12;;;;;;;7.53;4.47;;;28.00;62.00;;;;;;1916708;75;21449;-61
2022/07/18 08:30:41;;;;;;;5.33;3.98;;;28.10;61.80;;;;;;1916800;75;20994;-61
2022/07/18 08:33:10;;;;;;;5.25;3.90;;;28.20;61.60;;;;;;1916775;75;21076;-61
2022/07/18 08:35:39;;;;;;;10.75;4.85;;;28.30;61.60;;;;;;1916644;75;21503;-60
2022/07/18 08:38:08;;;;;;;6.53;3.72;;;28.30;59.80;;;;;;1916599;75;21010;-60
2022/07/18 08:40:38;;;;;;;5.78;3.37;;;28.10;59.40;;;;;;1915908;75;21041;-61
2022/07/18 08:43:07;;;;;;;8.60;5.45;;;28.10;59.80;;;;;;1916321;75;21460;-60
2022/07/18 08:45:37;;;;;;;4.90;3.90;;;28.10;59.90;;;;;;1916619;75;21101;-60
2022/07/18 08:48:06;;;;;;;7.47;4.58;;;28.20;59.80;;;;;;1916484;75;21006;-60
2022/07/18 08:50:35;;;;;;;8.08;3.30;;;28.20;59.20;;;;;;1916419;75;21410;-64
2022/07/18 08:53:04;;;;;;;6.25;3.35;;;28.30;59.40;;;;;;1916450;74;21124;-64
2022/07/18 08:55:33;;;;;;;5.90;3.22;;;28.40;59.00;;;;;;1916324;75;21502;-64
2022/07/18 08:58:02;;;;;;;7.62;3.52;;;28.30;58.10;;;;;;1916591;75;20982;-61
2022/07/18 09:00:31;;;;;;;5.35;3.75;;;28.20;58.20;;;;;;1916519;75;21018;-61
2022/07/18 09:03:01;;;;;;;4.40;2.98;;;28.20;57.60;;;;;;1916464;75;21042;-66
2022/07/18 09:05:31;;;;;;;4.45;3.05;;;28.20;57.90;;;;;;1916595;75;21002;-63
2022/07/18 09:08:19;;;;;;;4.55;3.08;;;28.30;57.10;;;;;;1916653;75;21072;-64
2022/07/18 09:10:59;;;;;;;4.33;2.85;;;28.30;57.20;;;;;;1916433;75;20983;-61
2022/07/18 09:13:42;;;;;;;3.77;2.40;;;28.50;57.40;;;;;;1916662;75;21002;-62
2022/07/18 09:16:14;;;;;;;3.98;2.70;;;28.60;55.80;;;;;;1916416;75;21006;-62
2022/07/18 09:18:45;;;;;;;4.45;2.65;;;28.50;56.00;;;;;;1916386;75;21018;-63
2022/07/18 09:21:18;;;;;;;6.17;2.40;;;28.60;55.70;;;;;;1916226;75;21362;-59
2022/07/18 09:23:48;;;;;;;5.45;2.62;;;28.60;55.00;;;;;;1916354;75;20998;-60
2022/07/18 09:26:35;;;;;;;6.97;2.87;;;28.70;55.00;;;;;;1916335;75;21147;-58
2022/07/18 09:29:05;;;;;;;4.45;2.58;;;28.70;55.00;;;;;;1916162;74;21056;-58
2022/07/18 09:31:34;;;;;;;5.97;2.27;;;28.80;54.90;;;;;;1916469;75;20998;-58
2022/07/18 09:34:05;;;;;;;6.50;2.35;;;28.80;54.10;;;;;;1916415;75;21562;-60
2022/07/18 09:36:36;;;;;;;3.83;2.90;;;28.80;54.10;;;;;;1916713;75;21060;-60
2022/07/18 09:39:19;;;;;;;4.92;2.25;;;28.70;54.50;;;;;;1916652;75;21026;-60
2022/07/18 09:41:48;;;;;;;4.00;2.33;;;28.70;54.40;;;;;;1916684;75;21076;-61
2022/07/18 09:44:18;;;;;;;4.15;2.55;;;28.70;54.20;;;;;;1916592;75;20990;-61
2022/07/18 09:47:06;;;;;;;3.80;3.00;;;28.80;53.40;;;;;;1916659;75;21453;-61
2022/07/18 09:49:36;;;;;;;5.28;2.95;;;28.80;53.50;;;;;;1916688;75;21358;-61
2022/07/18 09:52:10;;;;;;;11.88;2.67;;;28.90;52.80;;;;;;1917555;74;21092;-59
2022/07/18 09:54:40;;;;;;;5.08;2.65;;;28.80;52.50;;;;;;1923161;74;21006;-60
2022/07/18 09:57:10;;;;;;;3.37;2.08;;;28.90;52.70;;;;;;1923350;74;21081;-60
2022/07/18 09:59:39;;;;;;;5.70;2.20;;;28.90;51.90;;;;;;1923906;74;21067;-61
2022/07/18 10:02:08;;;;;;;3.87;2.20;;;28.90;51.60;;;;;;1923938;74;21045;-61
2022/07/18 10:04:37;;;;;;;13.45;2.40;;;28.90;51.60;;;;;;1924016;74;21099;-60
2022/07/18 10:07:07;;;;;;;4.25;2.08;;;28.80;51.80;;;;;;1923808;74;21076;-61
2022/07/18 10:09:37;;;;;;;3.70;2.27;;;28.90;51.50;;;;;;1923785;74;21444;-61
2022/07/18 10:12:08;;;;;;;4.78;1.98;;;28.90;51.70;;;;;;1923791;74;21455;-60
2022/07/18 10:14:38;;;;;;;3.58;2.45;;;28.90;51.00;;;;;;1923835;74;21002;-59
2022/07/18 10:17:06;;;;;;;3.98;2.40;;;28.90;50.10;;;;;;1923919;74;21413;-60
2022/07/18 10:19:36;;;;;;;2.98;2.33;;;28.90;50.80;;;;;;1923886;74;21038;-60
2022/07/18 10:22:06;;;;;;;3.22;1.92;;;29.00;50.70;;;;;;1923965;74;21071;-60
2022/07/18 10:24:41;;;;;;;2.90;2.00;;;29.10;50.00;;;;;;1923904;74;21002;-61
2022/07/18 10:27:18;;;;;;;2.02;1.80;;;29.10;50.00;;;;;;1923979;74;20990;-62
2022/07/18 10:30:09;;;;;;;3.35;2.08;;;29.20;48.80;;;;;;1923912;74;21044;-61
2022/07/18 10:32:38;;;;;;;5.53;1.80;;;29.20;49.40;;;;;;1923914;74;21051;-59
2022/07/18 10:35:07;;;;;;;3.47;1.80;;;29.20;48.80;;;;;;1923867;74;21106;-59
2022/07/18 10:37:37;;;;;;;3.52;1.90;;;29.30;48.70;;;;;;1923791;74;21056;-59
2022/07/18 10:40:30;;;;;;;5.72;1.77;;;29.40;48.60;;;;;;1923794;74;21056;-61
2022/07/18 10:43:30;;;;;;;6.45;2.08;;;29.50;48.10;;;;;;1923225;74;20990;-62
2022/07/18 10:46:01;;;;;;;3.00;1.90;;;29.50;48.20;;;;;;1923580;74;21699;-63
2022/07/18 10:48:41;;;;;;;2.70;1.77;;;29.50;48.00;;;;;;1923208;74;21006;-66
2022/07/18 10:51:16;;;;;;;4.53;1.98;;;29.50;47.70;;;;;;1923259;74;21115;-64
2022/07/18 10:53:49;;;;;;;;;;;29.50;47.50;;;;;;1926218;74;21037;-61
2022/07/18 10:56:18;;;;;;;2.35;2.12;;;29.50;48.20;;;;;;1914619;73;20110;-62
2022/07/18 10:58:47;;;;;;;3.00;2.10;;;29.50;48.40;;;;;;1923494;74;21483;-62
2022/07/18 11:01:20;;;;;;;5.00;1.85;;;29.50;48.20;;;;;;1923417;74;20990;-63
2022/07/18 11:03:49;;;;;;;6.53;1.90;;;29.60;47.70;;;;;;1923241;74;21099;-61
2022/07/18 11:06:18;;;;;;;2.25;1.98;;;29.60;47.10;;;;;;1923538;74;20982;-61
2022/07/18 11:08:47;;;;;;;9.43;2.30;;;29.50;47.40;;;;;;1923478;74;20982;-63
2022/07/18 11:11:16;;;;;;;10.78;2.22;;;29.40;48.30;;;;;;1922733;74;21001;-62
2022/07/18 11:13:49;;;;;;;6.50;2.27;;;29.30;48.20;;;;;;1923244;74;21110;-64
2022/07/18 11:16:19;;;;;;;5.33;2.70;;;29.40;48.20;;;;;;1923465;74;21052;-65
2022/07/18 11:18:51;;;;;;;13.53;2.62;;;29.50;48.00;;;;;;1923493;74;21077;-64
2022/07/18 11:21:28;;;;;;;6.28;2.55;;;29.60;48.30;;;;;;1923615;74;20978;-61
2022/07/18 11:24:13;;;;;;;4.22;1.85;;;29.60;47.60;;;;;;1923657;74;21049;-65
2022/07/18 11:26:47;;;;;;;2.52;1.70;;;29.50;47.70;;;;;;1923684;74;21494;-60
2022/07/18 11:29:20;;;;;;;4.67;2.00;;;29.40;48.10;;;;;;1923904;74;21077;-58
2022/07/18 11:31:54;;;;;;;3.37;2.30;;;29.40;48.40;;;;;;1923829;74;21064;-60
2022/07/18 11:34:25;;;;;;;2.60;1.60;;;29.30;48.60;;;;;;1923818;74;20998;-60
2022/07/18 11:36:54;;;;;;;4.83;1.90;;;29.30;49.20;;;;;;1923858;74;21010;-60
2022/07/18 11:39:33;;;;;;;2.65;1.87;;;29.30;49.10;;;;;;1923918;74;21501;-60
2022/07/18 11:42:04;;;;;;;2.87;1.80;;;29.40;48.90;;;;;;1923981;74;21067;-60
2022/07/18 11:44:33;;;;;;;2.80;1.90;;;29.50;48.50;;;;;;1923970;74;21063;-60
2022/07/18 11:47:04;;;;;;;3.70;2.37;;;29.60;48.30;;;;;;1923898;74;21021;-60
2022/07/18 11:49:34;;;;;;;4.22;2.98;;;29.60;48.00;;;;;;1923519;74;21018;-60
2022/07/18 11:52:03;;;;;;;6.83;3.42;;;29.50;47.90;;;;;;1923947;74;21052;-61
2022/07/18 11:54:32;;;;;;;3.33;1.90;;;29.50;48.50;;;;;;1919251;74;21441;-61
2022/07/18 11:57:01;;;;;;;3.75;2.00;;;29.40;48.40;;;;;;1916807;75;21018;-62
2022/07/18 11:59:39;;;;;;;11.57;3.85;;;29.40;48.70;;;;;;1916885;74;20982;-62
2022/07/18 12:02:08;;;;;;;3.52;1.82;;;29.60;48.70;;;;;;1916676;74;21010;-61
2022/07/18 12:04:39;;;;;;;2.95;1.77;;;29.60;48.60;;;;;;1916758;75;21002;-60
2022/07/18 12:07:23;;;;;;;7.83;2.45;;;29.70;47.80;;;;;;1916830;74;21010;-61
2022/07/18 12:09:53;;;;;;;10.73;3.10;;;29.60;48.20;;;;;;1917189;75;21084;-61
2022/07/18 12:12:23;;;;;;;6.42;2.75;;;29.60;48.60;;;;;;1916716;75;21504;-61
2022/07/18 12:15:03;;;;;;;10.13;2.70;;;29.70;48.90;;;;;;1916703;75;20994;-60
2022/07/18 12:17:33;;;;;;;3.55;1.92;;;29.70;48.60;;;;;;1916778;74;21014;-61
2022/07/18 12:20:20;;;;;;;4.22;2.20;;;29.50;48.90;;;;;;1915180;75;20990;-61
2022/07/18 12:23:11;;;;;;;3.92;2.40;;;29.50;49.00;;;;;;1916864;75;21468;-61
2022/07/18 12:26:00;;;;;;;6.25;3.00;;;29.50;49.10;;;;;;1916722;75;21046;-60
2022/07/18 12:28:29;;;;;;;4.37;2.30;;;29.30;48.70;;;;;;1916795;75;21429;-61
2022/07/18 12:30:58;;;;;;;2.40;1.62;;;29.30;49.00;;;;;;1916925;75;21006;-61
2022/07/18 12:33:27;;;;;;;10.35;1.65;;;29.30;49.10;;;;;;1916778;75;21002;-61
2022/07/18 12:35:58;;;;;;;3.75;1.65;;;29.30;48.90;;;;;;1916768;74;20999;-61
2022/07/18 12:38:27;;;;;;;9.65;3.25;;;29.30;48.50;;;;;;1916770;75;21068;-61
2022/07/18 12:40:59;;;;;;;2.58;1.62;;;29.20;48.80;;;;;;1916786;74;21483;-62
2022/07/18 12:43:33;;;;;;;5.47;1.57;;;29.30;48.80;;;;;;1916726;75;21441;-62
2022/07/18 12:46:05;;;;;;;3.20;1.50;;;29.30;48.60;;;;;;1916615;75;21417;-63
2022/07/18 12:48:35;;;;;;;3.72;1.80;;;29.20;48.20;;;;;;1916967;75;21068;-61
2022/07/18 12:51:07;;;;;;;4.37;1.60;;;29.10;48.60;;;;;;1916880;74;21018;-62
2022/07/18 12:53:38;;;;;;;2.83;1.65;;;29.00;48.70;;;;;;1916608;75;21030;-62
2022/07/18 12:56:08;;;;;;;2.00;1.77;;;29.00;48.80;;;;;;1916855;75;21041;-62
2022/07/18 12:58:37;;;;;;;4.75;1.57;;;29.10;48.60;;;;;;1916774;75;21409;-62
2022/07/18 13:01:06;;;;;;;3.22;1.67;;;29.10;48.70;;;;;;1916826;75;20967;-62
2022/07/18 13:03:36;;;;;;;2.30;1.47;;;29.20;48.80;;;;;;1916695;75;20994;-62